Terminal Aerodrome Forecast
Issued by NWS

Home | Current Version | Previous Version | Text Only | Print | Product List | Glossary On
Versions: 1 2 3 4 5 6 7 8 9 10 11 12 13 14 15
915
FTUS44 KTSA 310637 AAA
TAFXNA
TAF AMD
KXNA 310637Z 3107/0106 15004KT P6SM VCTS SCT050CB BKN250
      TEMPO 3108/3112 4SM BR
     FM311200 18004KT P6SM VCTS SCT040CB BKN100
     FM311800 20008KT P6SM SCT040 BKN250
     FM010100 15004KT P6SM SCT250=

USA.gov is the U.S. government's official web portal to all federal, state and local government web resources and services.